Edgewood, Iowa
Current Conditions -  °F | °C
As of 12:35 PM on Saturday 20 Dec 2014 (Local Time) from KPDC Reporting Station
Unknown Precip Unknown Precip  
Wind Chill: 31°   Ceiling: 1200
Heat Index: 31°   Visibility: 4mi
Dew Point: 26°   Wind: 3mph
Humidity: 82%   Direction: 130°SE
Pressure: 30.21"   Gusts: NA
Location:  42.64°N, 91.4°W
Report Text: KPDC 201835Z AUTO 13003KT 4SM UP OVC012 00/M03 A3021 RMK AO2 T10031031
Loading
Personal Weather Stations






























Interactive Weather Map New forecast layout! Learn more

10-Day Weather Forecast

Advertisements
Track Severe Weather on mobile